sensor_id;sensor_type;location;lat;lon;timestamp;temperature;humidity
43524;DHT22;29120;52.006;6.020;2022-10-31T00:01:18;13.60;99.90
43524;DHT22;29120;52.006;6.020;2022-10-31T00:03:44;13.50;99.90
43524;DHT22;29120;52.006;6.020;2022-10-31T00:06:10;13.50;99.90
43524;DHT22;29120;52.006;6.020;2022-10-31T00:08:35;13.40;99.90
43524;DHT22;29120;52.006;6.020;2022-10-31T00:11:01;13.40;99.90
43524;DHT22;29120;52.006;6.020;2022-10-31T00:13:27;13.40;99.90
43524;DHT22;29120;52.006;6.020;2022-10-31T00:15:52;13.30;99.90
43524;DHT22;29120;52.006;6.020;2022-10-31T00:18:18;13.30;99.90
43524;DHT22;29120;52.006;6.020;2022-10-31T00:20:43;13.30;99.90
43524;DHT22;29120;52.006;6.020;2022-10-31T00:23:10;13.30;99.90
43524;DHT22;29120;52.006;6.020;2022-10-31T00:25:38;13.30;99.90
43524;DHT22;29120;52.006;6.020;2022-10-31T00:28:05;13.20;99.90
43524;DHT22;29120;52.006;6.020;2022-10-31T00:30:31;13.20;99.90
43524;DHT22;29120;52.006;6.020;2022-10-31T00:32:57;13.20;99.90
43524;DHT22;29120;52.006;6.020;2022-10-31T00:35:23;13.10;99.90
43524;DHT22;29120;52.006;6.020;2022-10-31T00:37:48;13.10;99.90
43524;DHT22;29120;52.006;6.020;2022-10-31T00:40:14;13.10;99.90
43524;DHT22;29120;52.006;6.020;2022-10-31T00:42:40;13.10;99.90
43524;DHT22;29120;52.006;6.020;2022-10-31T00:45:08;13.00;99.90
43524;DHT22;29120;52.006;6.020;2022-10-31T00:47:34;13.00;99.90
43524;DHT22;29120;52.006;6.020;2022-10-31T00:50:00;13.00;99.90
43524;DHT22;29120;52.006;6.020;2022-10-31T00:52:25;12.90;99.90
43524;DHT22;29120;52.006;6.020;2022-10-31T00:54:51;12.90;99.90
43524;DHT22;29120;52.006;6.020;2022-10-31T00:57:16;12.80;99.90
43524;DHT22;29120;52.006;6.020;2022-10-31T00:59:42;12.80;99.90
43524;DHT22;29120;52.006;6.020;2022-10-31T01:02:07;12.70;99.90
43524;DHT22;29120;52.006;6.020;2022-10-31T01:04:33;12.70;99.90
43524;DHT22;29120;52.006;6.020;2022-10-31T01:06:59;12.70;99.90
43524;DHT22;29120;52.006;6.020;2022-10-31T01:09:24;12.70;99.90
43524;DHT22;29120;52.006;6.020;2022-10-31T01:11:50;12.70;99.90
43524;DHT22;29120;52.006;6.020;2022-10-31T01:14:15;12.60;99.90
43524;DHT22;29120;52.006;6.020;2022-10-31T01:16:41;12.60;99.90
43524;DHT22;29120;52.006;6.020;2022-10-31T01:19:06;12.50;99.90
43524;DHT22;29120;52.006;6.020;2022-10-31T01:21:33;12.50;99.90
43524;DHT22;29120;52.006;6.020;2022-10-31T01:23:59;12.50;99.90
43524;DHT22;29120;52.006;6.020;2022-10-31T01:26:29;12.50;99.90
43524;DHT22;29120;52.006;6.020;2022-10-31T01:29:01;12.50;99.90
43524;DHT22;29120;52.006;6.020;2022-10-31T01:31:30;12.50;99.90
43524;DHT22;29120;52.006;6.020;2022-10-31T01:33:56;12.50;99.90
43524;DHT22;29120;52.006;6.020;2022-10-31T01:36:25;12.50;99.90
43524;DHT22;29120;52.006;6.020;2022-10-31T01:38:52;12.50;99.90
43524;DHT22;29120;52.006;6.020;2022-10-31T01:41:21;12.50;99.90
43524;DHT22;29120;52.006;6.020;2022-10-31T01:43:53;12.50;99.90
43524;DHT22;29120;52.006;6.020;2022-10-31T01:46:32;12.50;99.90
43524;DHT22;29120;52.006;6.020;2022-10-31T01:49:01;12.50;99.90
43524;DHT22;29120;52.006;6.020;2022-10-31T01:51:31;12.50;99.90
43524;DHT22;29120;52.006;6.020;2022-10-31T01:54:02;12.50;99.90
43524;DHT22;29120;52.006;6.020;2022-10-31T01:56:28;12.40;99.90
43524;DHT22;29120;52.006;6.020;2022-10-31T01:58:55;12.40;99.90
43524;DHT22;29120;52.006;6.020;2022-10-31T02:01:21;12.30;99.90
43524;DHT22;29120;52.006;6.020;2022-10-31T02:03:47;12.30;99.90
43524;DHT22;29120;52.006;6.020;2022-10-31T02:08:53;12.30;99.90
43524;DHT22;29120;52.006;6.020;2022-10-31T02:11:20;12.30;99.90
43524;DHT22;29120;52.006;6.020;2022-10-31T02:13:46;12.40;99.90
43524;DHT22;29120;52.006;6.020;2022-10-31T02:16:12;12.40;99.90
43524;DHT22;29120;52.006;6.020;2022-10-31T02:18:38;12.40;99.90
43524;DHT22;29120;52.006;6.020;2022-10-31T02:21:24;12.40;99.90
43524;DHT22;29120;52.006;6.020;2022-10-31T02:32:46;12.30;99.90
43524;DHT22;29120;52.006;6.020;2022-10-31T02:35:22;12.30;99.90
43524;DHT22;29120;52.006;6.020;2022-10-31T02:38:02;12.30;99.90
43524;DHT22;29120;52.006;6.020;2022-10-31T02:40:35;12.30;99.90
43524;DHT22;29120;52.006;6.020;2022-10-31T02:46:12;12.20;99.90
43524;DHT22;29120;52.006;6.020;2022-10-31T02:48:40;12.20;99.90
43524;DHT22;29120;52.006;6.020;2022-10-31T02:51:08;12.20;99.90
43524;DHT22;29120;52.006;6.020;2022-10-31T02:53:36;12.10;99.90
43524;DHT22;29120;52.006;6.020;2022-10-31T02:56:19;12.10;99.90
43524;DHT22;29120;52.006;6.020;2022-10-31T02:58:55;12.10;99.90
43524;DHT22;29120;52.006;6.020;2022-10-31T03:01:39;12.00;99.90
43524;DHT22;29120;52.006;6.020;2022-10-31T03:04:36;12.00;99.90
43524;DHT22;29120;52.006;6.020;2022-10-31T03:19:04;11.70;99.90
43524;DHT22;29120;52.006;6.020;2022-10-31T03:21:34;11.70;99.90
43524;DHT22;29120;52.006;6.020;2022-10-31T03:24:04;11.60;99.90
43524;DHT22;29120;52.006;6.020;2022-10-31T03:26:32;11.60;99.90
43524;DHT22;29120;52.006;6.020;2022-10-31T03:29:08;11.60;99.90
43524;DHT22;29120;52.006;6.020;2022-10-31T03:31:38;11.60;99.90
43524;DHT22;29120;52.006;6.020;2022-10-31T03:34:06;11.50;99.90
43524;DHT22;29120;52.006;6.020;2022-10-31T03:36:35;11.50;99.90
43524;DHT22;29120;52.006;6.020;2022-10-31T03:39:04;11.50;99.90
43524;DHT22;29120;52.006;6.020;2022-10-31T03:41:35;11.40;99.90
43524;DHT22;29120;52.006;6.020;2022-10-31T03:44:06;11.40;99.90
43524;DHT22;29120;52.006;6.020;2022-10-31T03:46:33;11.30;99.90
43524;DHT22;29120;52.006;6.020;2022-10-31T03:48:59;11.30;99.90
43524;DHT22;29120;52.006;6.020;2022-10-31T03:56:59;11.20;99.90
43524;DHT22;29120;52.006;6.020;2022-10-31T03:59:40;11.10;99.90
43524;DHT22;29120;52.006;6.020;2022-10-31T04:02:08;11.10;99.90
43524;DHT22;29120;52.006;6.020;2022-10-31T04:04:36;11.00;99.90
43524;DHT22;29120;52.006;6.020;2022-10-31T04:07:03;11.00;99.90
43524;DHT22;29120;52.006;6.020;2022-10-31T04:09:32;10.90;99.90
43524;DHT22;29120;52.006;6.020;2022-10-31T04:12:00;10.90;99.90
43524;DHT22;29120;52.006;6.020;2022-10-31T04:14:29;10.90;99.90
43524;DHT22;29120;52.006;6.020;2022-10-31T04:16:56;10.90;99.90
43524;DHT22;29120;52.006;6.020;2022-10-31T04:19:22;10.90;99.90
43524;DHT22;29120;52.006;6.020;2022-10-31T04:21:47;10.80;99.90
43524;DHT22;29120;52.006;6.020;2022-10-31T04:24:13;10.80;99.90
43524;DHT22;29120;52.006;6.020;2022-10-31T04:26:38;10.80;99.90
43524;DHT22;29120;52.006;6.020;2022-10-31T04:29:04;10.80;99.90
43524;DHT22;29120;52.006;6.020;2022-10-31T04:31:29;10.80;99.90
43524;DHT22;29120;52.006;6.020;2022-10-31T04:33:55;10.80;99.90
43524;DHT22;29120;52.006;6.020;2022-10-31T04:36:20;10.70;99.90
43524;DHT22;29120;52.006;6.020;2022-10-31T04:38:46;10.70;99.90
43524;DHT22;29120;52.006;6.020;2022-10-31T04:41:12;10.70;99.90
43524;DHT22;29120;52.006;6.020;2022-10-31T04:43:37;10.70;99.90
43524;DHT22;29120;52.006;6.020;2022-10-31T04:46:03;10.70;99.90
43524;DHT22;29120;52.006;6.020;2022-10-31T04:48:29;10.70;99.90
43524;DHT22;29120;52.006;6.020;2022-10-31T04:51:01;10.70;99.90
43524;DHT22;29120;52.006;6.020;2022-10-31T04:53:27;10.70;99.90
43524;DHT22;29120;52.006;6.020;2022-10-31T04:55:53;10.70;99.90
43524;DHT22;29120;52.006;6.020;2022-10-31T04:58:18;10.70;99.90
43524;DHT22;29120;52.006;6.020;2022-10-31T05:00:45;10.70;99.90
43524;DHT22;29120;52.006;6.020;2022-10-31T05:03:10;10.70;99.90
43524;DHT22;29120;52.006;6.020;2022-10-31T05:05:36;10.60;99.90
43524;DHT22;29120;52.006;6.020;2022-10-31T05:08:01;10.60;99.90
43524;DHT22;29120;52.006;6.020;2022-10-31T05:10:29;10.60;99.90
43524;DHT22;29120;52.006;6.020;2022-10-31T05:12:56;10.60;99.90
43524;DHT22;29120;52.006;6.020;2022-10-31T05:15:23;10.60;99.90
43524;DHT22;29120;52.006;6.020;2022-10-31T05:17:50;10.60;99.90
43524;DHT22;29120;52.006;6.020;2022-10-31T05:20:17;10.60;99.90
43524;DHT22;29120;52.006;6.020;2022-10-31T05:22:51;10.60;99.90
43524;DHT22;29120;52.006;6.020;2022-10-31T05:25:18;10.70;99.90
43524;DHT22;29120;52.006;6.020;2022-10-31T05:27:45;10.70;99.90
43524;DHT22;29120;52.006;6.020;2022-10-31T05:30:13;10.70;99.90
43524;DHT22;29120;52.006;6.020;2022-10-31T05:32:44;10.70;99.90
43524;DHT22;29120;52.006;6.020;2022-10-31T05:35:32;10.70;99.90
43524;DHT22;29120;52.006;6.020;2022-10-31T05:37:58;10.70;99.90
43524;DHT22;29120;52.006;6.020;2022-10-31T05:40:24;10.80;99.90
43524;DHT22;29120;52.006;6.020;2022-10-31T05:42:51;10.80;99.90
43524;DHT22;29120;52.006;6.020;2022-10-31T05:45:18;10.80;99.90
43524;DHT22;29120;52.006;6.020;2022-10-31T05:47:58;10.80;99.90
43524;DHT22;29120;52.006;6.020;2022-10-31T05:50:25;10.80;99.90
43524;DHT22;29120;52.006;6.020;2022-10-31T05:52:56;10.80;99.90
43524;DHT22;29120;52.006;6.020;2022-10-31T05:55:22;10.70;99.90
43524;DHT22;29120;52.006;6.020;2022-10-31T05:57:47;10.70;99.90
43524;DHT22;29120;52.006;6.020;2022-10-31T06:00:13;10.70;99.90
43524;DHT22;29120;52.006;6.020;2022-10-31T06:02:38;10.70;99.90
43524;DHT22;29120;52.006;6.020;2022-10-31T06:05:04;10.70;99.90
43524;DHT22;29120;52.006;6.020;2022-10-31T06:07:34;10.70;99.90
43524;DHT22;29120;52.006;6.020;2022-10-31T06:10:01;10.70;99.90
43524;DHT22;29120;52.006;6.020;2022-10-31T06:12:27;10.70;99.90
43524;DHT22;29120;52.006;6.020;2022-10-31T06:14:52;10.70;99.90
43524;DHT22;29120;52.006;6.020;2022-10-31T06:17:18;10.70;99.90
43524;DHT22;29120;52.006;6.020;2022-10-31T06:19:44;10.70;99.90
43524;DHT22;29120;52.006;6.020;2022-10-31T06:22:09;10.70;99.90
43524;DHT22;29120;52.006;6.020;2022-10-31T06:24:37;10.70;99.90
43524;DHT22;29120;52.006;6.020;2022-10-31T06:27:03;10.70;99.90
43524;DHT22;29120;52.006;6.020;2022-10-31T06:29:29;10.60;99.90
43524;DHT22;29120;52.006;6.020;2022-10-31T06:31:54;10.60;99.90
43524;DHT22;29120;52.006;6.020;2022-10-31T06:34:20;10.60;99.90
43524;DHT22;29120;52.006;6.020;2022-10-31T06:36:46;10.60;99.90
43524;DHT22;29120;52.006;6.020;2022-10-31T06:39:12;10.60;99.90
43524;DHT22;29120;52.006;6.020;2022-10-31T06:41:38;10.60;99.90
43524;DHT22;29120;52.006;6.020;2022-10-31T06:44:05;10.60;99.90
43524;DHT22;29120;52.006;6.020;2022-10-31T06:46:31;10.60;99.90
43524;DHT22;29120;52.006;6.020;2022-10-31T06:48:56;10.50;99.90
43524;DHT22;29120;52.006;6.020;2022-10-31T06:51:22;10.50;99.90
43524;DHT22;29120;52.006;6.020;2022-10-31T06:53:47;10.50;99.90
43524;DHT22;29120;52.006;6.020;2022-10-31T06:56:13;10.50;99.90
43524;DHT22;29120;52.006;6.020;2022-10-31T06:58:39;10.60;99.90
43524;DHT22;29120;52.006;6.020;2022-10-31T07:01:04;10.60;99.90
43524;DHT22;29120;52.006;6.020;2022-10-31T07:03:30;10.60;99.90
43524;DHT22;29120;52.006;6.020;2022-10-31T07:05:56;10.60;99.90
43524;DHT22;29120;52.006;6.020;2022-10-31T07:08:22;10.60;99.90
43524;DHT22;29120;52.006;6.020;2022-10-31T07:10:53;10.70;99.90
43524;DHT22;29120;52.006;6.020;2022-10-31T07:13:18;10.70;99.90
43524;DHT22;29120;52.006;6.020;2022-10-31T07:15:49;10.70;99.90
43524;DHT22;29120;52.006;6.020;2022-10-31T07:18:15;10.80;99.90
43524;DHT22;29120;52.006;6.020;2022-10-31T07:20:40;10.80;99.90
43524;DHT22;29120;52.006;6.020;2022-10-31T07:23:07;10.90;99.90
43524;DHT22;29120;52.006;6.020;2022-10-31T07:25:32;11.00;99.90
43524;DHT22;29120;52.006;6.020;2022-10-31T07:27:58;11.10;99.90
43524;DHT22;29120;52.006;6.020;2022-10-31T07:30:24;11.20;99.90
43524;DHT22;29120;52.006;6.020;2022-10-31T07:32:50;11.30;99.90
43524;DHT22;29120;52.006;6.020;2022-10-31T07:35:18;11.40;99.90
43524;DHT22;29120;52.006;6.020;2022-10-31T07:37:44;11.50;99.90
43524;DHT22;29120;52.006;6.020;2022-10-31T07:40:10;11.50;99.90
43524;DHT22;29120;52.006;6.020;2022-10-31T07:42:41;11.50;99.90
43524;DHT22;29120;52.006;6.020;2022-10-31T07:45:09;11.60;99.90
43524;DHT22;29120;52.006;6.020;2022-10-31T07:47:41;11.60;99.90
43524;DHT22;29120;52.006;6.020;2022-10-31T07:50:09;11.70;99.90
43524;DHT22;29120;52.006;6.020;2022-10-31T07:52:35;11.80;99.90
43524;DHT22;29120;52.006;6.020;2022-10-31T07:55:00;11.90;99.90
43524;DHT22;29120;52.006;6.020;2022-10-31T07:57:26;12.00;99.90
43524;DHT22;29120;52.006;6.020;2022-10-31T07:59:51;12.20;99.90
43524;DHT22;29120;52.006;6.020;2022-10-31T08:02:17;12.20;99.90
43524;DHT22;29120;52.006;6.020;2022-10-31T08:04:43;12.30;99.90
43524;DHT22;29120;52.006;6.020;2022-10-31T08:07:08;12.40;99.90
43524;DHT22;29120;52.006;6.020;2022-10-31T08:09:34;12.50;99.90
43524;DHT22;29120;52.006;6.020;2022-10-31T08:11:59;12.50;99.90
43524;DHT22;29120;52.006;6.020;2022-10-31T08:14:26;12.60;99.90
43524;DHT22;29120;52.006;6.020;2022-10-31T08:16:55;12.70;99.90
43524;DHT22;29120;52.006;6.020;2022-10-31T08:19:21;12.80;99.90
43524;DHT22;29120;52.006;6.020;2022-10-31T08:21:49;12.90;99.90
43524;DHT22;29120;52.006;6.020;2022-10-31T08:24:15;13.00;99.90
43524;DHT22;29120;52.006;6.020;2022-10-31T08:26:40;13.10;99.90
43524;DHT22;29120;52.006;6.020;2022-10-31T08:29:06;13.10;99.90
43524;DHT22;29120;52.006;6.020;2022-10-31T08:31:31;13.30;99.90
43524;DHT22;29120;52.006;6.020;2022-10-31T08:33:57;13.40;99.90
43524;DHT22;29120;52.006;6.020;2022-10-31T08:36:23;13.50;99.90
43524;DHT22;29120;52.006;6.020;2022-10-31T08:38:48;13.70;99.90
43524;DHT22;29120;52.006;6.020;2022-10-31T08:41:14;13.80;99.90
43524;DHT22;29120;52.006;6.020;2022-10-31T08:43:40;13.90;99.90
43524;DHT22;29120;52.006;6.020;2022-10-31T08:46:06;14.10;99.90
43524;DHT22;29120;52.006;6.020;2022-10-31T08:48:31;14.20;99.90
43524;DHT22;29120;52.006;6.020;2022-10-31T08:50:58;14.30;99.90
43524;DHT22;29120;52.006;6.020;2022-10-31T08:53:24;14.30;99.90
43524;DHT22;29120;52.006;6.020;2022-10-31T08:55:50;14.40;99.90
43524;DHT22;29120;52.006;6.020;2022-10-31T08:58:19;14.60;99.90
43524;DHT22;29120;52.006;6.020;2022-10-31T09:00:47;14.80;99.90
43524;DHT22;29120;52.006;6.020;2022-10-31T09:03:18;15.30;99.90
43524;DHT22;29120;52.006;6.020;2022-10-31T09:05:44;16.20;99.90
43524;DHT22;29120;52.006;6.020;2022-10-31T09:08:11;17.00;99.00
43524;DHT22;29120;52.006;6.020;2022-10-31T09:10:37;17.60;98.10
43524;DHT22;29120;52.006;6.020;2022-10-31T09:13:08;17.90;97.70
43524;DHT22;29120;52.006;6.020;2022-10-31T09:15:37;18.00;97.50
43524;DHT22;29120;52.006;6.020;2022-10-31T09:18:04;17.90;97.60
43524;DHT22;29120;52.006;6.020;2022-10-31T09:20:31;17.80;97.60
43524;DHT22;29120;52.006;6.020;2022-10-31T09:23:02;17.60;97.90
43524;DHT22;29120;52.006;6.020;2022-10-31T09:25:28;17.50;98.00
43524;DHT22;29120;52.006;6.020;2022-10-31T09:27:58;17.70;98.20
43524;DHT22;29120;52.006;6.020;2022-10-31T09:30:26;18.10;97.60
43524;DHT22;29120;52.006;6.020;2022-10-31T09:33:04;18.80;96.70
43524;DHT22;29120;52.006;6.020;2022-10-31T09:35:30;18.60;96.10
43524;DHT22;29120;52.006;6.020;2022-10-31T09:38:00;18.40;96.40
43524;DHT22;29120;52.006;6.020;2022-10-31T09:49:13;17.30;97.60
43524;DHT22;29120;52.006;6.020;2022-10-31T09:51:50;17.10;97.90
43524;DHT22;29120;52.006;6.020;2022-10-31T09:54:25;17.10;98.00
43524;DHT22;29120;52.006;6.020;2022-10-31T09:56:52;17.20;98.10
43524;DHT22;29120;52.006;6.020;2022-10-31T10:01:59;17.20;97.90
43524;DHT22;29120;52.006;6.020;2022-10-31T10:04:39;17.10;97.90
43524;DHT22;29120;52.006;6.020;2022-10-31T10:07:29;17.00;98.10
43524;DHT22;29120;52.006;6.020;2022-10-31T10:09:56;16.70;98.30
43524;DHT22;29120;52.006;6.020;2022-10-31T10:12:45;16.60;98.60
43524;DHT22;29120;52.006;6.020;2022-10-31T10:15:42;16.60;98.70
43524;DHT22;29120;52.006;6.020;2022-10-31T10:18:29;16.60;98.80
43524;DHT22;29120;52.006;6.020;2022-10-31T10:21:20;16.80;98.80
43524;DHT22;29120;52.006;6.020;2022-10-31T10:24:03;17.10;98.50
43524;DHT22;29120;52.006;6.020;2022-10-31T10:26:36;17.30;98.40
43524;DHT22;29120;52.006;6.020;2022-10-31T10:29:12;17.50;98.30
43524;DHT22;29120;52.006;6.020;2022-10-31T10:31:44;17.50;98.20
43524;DHT22;29120;52.006;6.020;2022-10-31T10:39:52;17.40;98.30
43524;DHT22;29120;52.006;6.020;2022-10-31T10:42:18;17.40;98.10
43524;DHT22;29120;52.006;6.020;2022-10-31T10:45:19;17.30;98.00
43524;DHT22;29120;52.006;6.020;2022-10-31T10:48:16;17.50;97.80
43524;DHT22;29120;52.006;6.020;2022-10-31T10:50:48;17.50;97.80
43524;DHT22;29120;52.006;6.020;2022-10-31T10:56:11;17.50;97.80
43524;DHT22;29120;52.006;6.020;2022-10-31T10:58:41;17.50;97.80
43524;DHT22;29120;52.006;6.020;2022-10-31T11:01:12;17.50;97.70
43524;DHT22;29120;52.006;6.020;2022-10-31T11:03:39;17.60;97.60
43524;DHT22;29120;52.006;6.020;2022-10-31T11:06:17;17.70;97.60
43524;DHT22;29120;52.006;6.020;2022-10-31T11:08:46;17.70;97.50
43524;DHT22;29120;52.006;6.020;2022-10-31T11:11:30;17.80;97.40
43524;DHT22;29120;52.006;6.020;2022-10-31T11:14:12;18.00;97.10
43524;DHT22;29120;52.006;6.020;2022-10-31T11:16:44;18.00;96.80
43524;DHT22;29120;52.006;6.020;2022-10-31T11:21:45;18.10;96.80
43524;DHT22;29120;52.006;6.020;2022-10-31T11:26:38;18.20;96.70
43524;DHT22;29120;52.006;6.020;2022-10-31T11:29:05;18.70;96.50
43524;DHT22;29120;52.006;6.020;2022-10-31T11:31:34;19.00;95.90
43524;DHT22;29120;52.006;6.020;2022-10-31T11:34:03;19.20;95.60
43524;DHT22;29120;52.006;6.020;2022-10-31T11:36:36;19.30;95.70
43524;DHT22;29120;52.006;6.020;2022-10-31T11:39:05;19.30;95.50
43524;DHT22;29120;52.006;6.020;2022-10-31T11:41:39;19.20;95.50
43524;DHT22;29120;52.006;6.020;2022-10-31T11:44:24;18.90;95.70
43524;DHT22;29120;52.006;6.020;2022-10-31T11:46:54;18.70;95.80
43524;DHT22;29120;52.006;6.020;2022-10-31T11:51:57;18.50;96.00
43524;DHT22;29120;52.006;6.020;2022-10-31T11:54:27;18.70;95.80
43524;DHT22;29120;52.006;6.020;2022-10-31T11:56:53;18.80;95.60
43524;DHT22;29120;52.006;6.020;2022-10-31T11:59:27;19.10;95.30
43524;DHT22;29120;52.006;6.020;2022-10-31T12:01:55;19.40;95.10
43524;DHT22;29120;52.006;6.020;2022-10-31T12:04:33;19.90;94.80
43524;DHT22;29120;52.006;6.020;2022-10-31T12:07:01;19.90;94.30
43524;DHT22;29120;52.006;6.020;2022-10-31T12:09:28;19.90;94.30
43524;DHT22;29120;52.006;6.020;2022-10-31T12:15:18;20.40;93.90
43524;DHT22;29120;52.006;6.020;2022-10-31T12:23:33;20.40;93.20
43524;DHT22;29120;52.006;6.020;2022-10-31T12:29:01;20.20;93.10
43524;DHT22;29120;52.006;6.020;2022-10-31T12:45:28;19.00;94.40
43524;DHT22;29120;52.006;6.020;2022-10-31T12:48:17;18.90;94.50
43524;DHT22;29120;52.006;6.020;2022-10-31T12:56:32;18.90;94.80
43524;DHT22;29120;52.006;6.020;2022-10-31T13:02:12;19.00;94.60
43524;DHT22;29120;52.006;6.020;2022-10-31T13:04:56;19.20;94.70
43524;DHT22;29120;52.006;6.020;2022-10-31T13:07:28;20.10;94.20
43524;DHT22;29120;52.006;6.020;2022-10-31T13:12:31;21.80;92.70
43524;DHT22;29120;52.006;6.020;2022-10-31T13:15:02;21.80;92.00
43524;DHT22;29120;52.006;6.020;2022-10-31T13:17:34;21.70;91.60
43524;DHT22;29120;52.006;6.020;2022-10-31T13:22:55;22.10;91.00
43524;DHT22;29120;52.006;6.020;2022-10-31T13:25:28;22.20;90.30
43524;DHT22;29120;52.006;6.020;2022-10-31T13:28:05;22.20;90.20
43524;DHT22;29120;52.006;6.020;2022-10-31T13:30:40;22.10;90.00
43524;DHT22;29120;52.006;6.020;2022-10-31T13:33:20;21.80;89.70
43524;DHT22;29120;52.006;6.020;2022-10-31T13:39:03;20.70;90.20
43524;DHT22;29120;52.006;6.020;2022-10-31T13:41:55;20.30;91.10
43524;DHT22;29120;52.006;6.020;2022-10-31T13:44:26;20.00;91.40
43524;DHT22;29120;52.006;6.020;2022-10-31T13:46:54;19.70;91.60
43524;DHT22;29120;52.006;6.020;2022-10-31T13:54:37;19.40;92.20
43524;DHT22;29120;52.006;6.020;2022-10-31T13:57:14;19.30;92.30
43524;DHT22;29120;52.006;6.020;2022-10-31T13:59:53;19.30;92.70
43524;DHT22;29120;52.006;6.020;2022-10-31T14:02:32;19.20;92.60
43524;DHT22;29120;52.006;6.020;2022-10-31T14:05:01;19.20;92.70
43524;DHT22;29120;52.006;6.020;2022-10-31T14:07:28;19.20;92.80
43524;DHT22;29120;52.006;6.020;2022-10-31T14:10:07;19.10;92.90
43524;DHT22;29120;52.006;6.020;2022-10-31T14:12:46;19.10;93.00
43524;DHT22;29120;52.006;6.020;2022-10-31T14:17:57;18.90;93.30
43524;DHT22;29120;52.006;6.020;2022-10-31T14:20:35;18.90;93.40
43524;DHT22;29120;52.006;6.020;2022-10-31T14:25:52;18.80;93.60
43524;DHT22;29120;52.006;6.020;2022-10-31T14:28:20;18.70;93.70
43524;DHT22;29120;52.006;6.020;2022-10-31T14:30:57;18.70;93.80
43524;DHT22;29120;52.006;6.020;2022-10-31T14:33:25;18.60;94.00
43524;DHT22;29120;52.006;6.020;2022-10-31T14:36:06;18.60;94.10
43524;DHT22;29120;52.006;6.020;2022-10-31T14:41:32;18.50;94.30
43524;DHT22;29120;52.006;6.020;2022-10-31T14:49:50;18.40;94.60
43524;DHT22;29120;52.006;6.020;2022-10-31T14:52:23;18.30;94.70
43524;DHT22;29120;52.006;6.020;2022-10-31T14:54:53;18.20;94.80
43524;DHT22;29120;52.006;6.020;2022-10-31T14:57:23;18.20;94.80
43524;DHT22;29120;52.006;6.020;2022-10-31T14:59:57;18.10;94.80
43524;DHT22;29120;52.006;6.020;2022-10-31T15:02:37;18.00;94.90
43524;DHT22;29120;52.006;6.020;2022-10-31T15:05:08;18.10;95.00
43524;DHT22;29120;52.006;6.020;2022-10-31T15:07:34;18.00;95.10
43524;DHT22;29120;52.006;6.020;2022-10-31T15:10:02;18.00;95.10
43524;DHT22;29120;52.006;6.020;2022-10-31T15:12:33;18.00;95.30
43524;DHT22;29120;52.006;6.020;2022-10-31T15:17:45;17.80;95.60
43524;DHT22;29120;52.006;6.020;2022-10-31T15:20:19;17.70;95.70
43524;DHT22;29120;52.006;6.020;2022-10-31T15:22:45;17.70;95.80
43524;DHT22;29120;52.006;6.020;2022-10-31T15:25:17;17.70;95.80
43524;DHT22;29120;52.006;6.020;2022-10-31T15:27:43;17.60;96.00
43524;DHT22;29120;52.006;6.020;2022-10-31T15:30:20;17.50;96.00
43524;DHT22;29120;52.006;6.020;2022-10-31T15:32:47;17.50;96.20
43524;DHT22;29120;52.006;6.020;2022-10-31T15:37:45;17.50;96.40
43524;DHT22;29120;52.006;6.020;2022-10-31T15:40:18;17.40;96.40
43524;DHT22;29120;52.006;6.020;2022-10-31T15:42:50;17.40;96.50
43524;DHT22;29120;52.006;6.020;2022-10-31T15:45:24;17.40;96.60
43524;DHT22;29120;52.006;6.020;2022-10-31T15:48:14;17.40;96.60
43524;DHT22;29120;52.006;6.020;2022-10-31T15:50:48;17.30;96.60
43524;DHT22;29120;52.006;6.020;2022-10-31T15:53:18;17.30;96.70
43524;DHT22;29120;52.006;6.020;2022-10-31T15:55:49;17.30;96.70
43524;DHT22;29120;52.006;6.020;2022-10-31T15:58:17;17.30;96.80
43524;DHT22;29120;52.006;6.020;2022-10-31T16:00:43;17.30;96.80
43524;DHT22;29120;52.006;6.020;2022-10-31T16:03:23;17.20;96.90
43524;DHT22;29120;52.006;6.020;2022-10-31T16:05:52;17.20;96.90
43524;DHT22;29120;52.006;6.020;2022-10-31T16:13:37;17.10;97.10
43524;DHT22;29120;52.006;6.020;2022-10-31T16:16:11;17.10;97.50
43524;DHT22;29120;52.006;6.020;2022-10-31T16:18:39;17.00;97.30
43524;DHT22;29120;52.006;6.020;2022-10-31T16:21:06;17.00;97.40
43524;DHT22;29120;52.006;6.020;2022-10-31T16:23:32;17.00;97.40
43524;DHT22;29120;52.006;6.020;2022-10-31T16:25:58;16.90;97.50
43524;DHT22;29120;52.006;6.020;2022-10-31T16:28:25;16.90;97.50
43524;DHT22;29120;52.006;6.020;2022-10-31T16:30:55;16.80;97.60
43524;DHT22;29120;52.006;6.020;2022-10-31T16:33:30;16.80;97.70
43524;DHT22;29120;52.006;6.020;2022-10-31T16:35:58;16.70;97.80
43524;DHT22;29120;52.006;6.020;2022-10-31T16:38:24;16.60;97.90
43524;DHT22;29120;52.006;6.020;2022-10-31T16:40:51;16.60;98.10
43524;DHT22;29120;52.006;6.020;2022-10-31T16:43:18;16.60;98.10
43524;DHT22;29120;52.006;6.020;2022-10-31T16:45:51;16.60;98.20
43524;DHT22;29120;52.006;6.020;2022-10-31T16:48:21;16.60;98.30
43524;DHT22;29120;52.006;6.020;2022-10-31T16:50:49;16.50;98.30
43524;DHT22;29120;52.006;6.020;2022-10-31T16:53:16;16.50;98.30
43524;DHT22;29120;52.006;6.020;2022-10-31T16:55:59;16.50;98.40
43524;DHT22;29120;52.006;6.020;2022-10-31T16:58:27;16.40;98.40
43524;DHT22;29120;52.006;6.020;2022-10-31T17:00:55;16.40;98.40
43524;DHT22;29120;52.006;6.020;2022-10-31T17:03:21;16.30;98.50
43524;DHT22;29120;52.006;6.020;2022-10-31T17:05:47;16.30;98.60
43524;DHT22;29120;52.006;6.020;2022-10-31T17:08:13;16.30;98.70
43524;DHT22;29120;52.006;6.020;2022-10-31T17:10:40;16.20;98.70
43524;DHT22;29120;52.006;6.020;2022-10-31T17:13:10;16.20;99.10
43524;DHT22;29120;52.006;6.020;2022-10-31T17:15:42;16.20;98.90
43524;DHT22;29120;52.006;6.020;2022-10-31T17:18:12;16.20;98.90
43524;DHT22;29120;52.006;6.020;2022-10-31T17:20:38;16.20;99.00
43524;DHT22;29120;52.006;6.020;2022-10-31T17:23:04;16.20;99.00
43524;DHT22;29120;52.006;6.020;2022-10-31T17:25:30;16.10;99.00
43524;DHT22;29120;52.006;6.020;2022-10-31T17:27:58;16.10;99.00
43524;DHT22;29120;52.006;6.020;2022-10-31T17:30:24;16.10;99.10
43524;DHT22;29120;52.006;6.020;2022-10-31T17:32:50;16.10;99.20
43524;DHT22;29120;52.006;6.020;2022-10-31T17:35:16;16.10;99.20
43524;DHT22;29120;52.006;6.020;2022-10-31T17:37:42;16.00;99.30
43524;DHT22;29120;52.006;6.020;2022-10-31T17:40:10;16.00;99.30
43524;DHT22;29120;52.006;6.020;2022-10-31T17:42:36;16.10;99.30
43524;DHT22;29120;52.006;6.020;2022-10-31T17:45:03;16.00;99.30
43524;DHT22;29120;52.006;6.020;2022-10-31T17:47:29;16.10;99.30
43524;DHT22;29120;52.006;6.020;2022-10-31T17:49:54;16.10;99.30
43524;DHT22;29120;52.006;6.020;2022-10-31T17:52:20;16.10;99.30
43524;DHT22;29120;52.006;6.020;2022-10-31T17:54:45;16.00;99.40
43524;DHT22;29120;52.006;6.020;2022-10-31T17:57:11;16.00;99.40